createdAt,value
2019-05-07T00:01:03.535Z,7.90
2019-05-07T00:05:54.420Z,7.90
2019-05-07T00:10:45.313Z,8.10
2019-05-07T00:15:36.240Z,8.60
2019-05-07T00:20:27.145Z,8.70
2019-05-07T00:25:19.139Z,8.40
2019-05-07T00:30:10.055Z,8.20
2019-05-07T00:35:06.852Z,8.00
2019-05-07T00:39:58.755Z,7.90
2019-05-07T00:44:53.033Z,7.80
2019-05-07T00:49:43.502Z,8.10
2019-05-07T00:54:34.438Z,8.50
2019-05-07T00:59:25.374Z,8.40
2019-05-07T01:04:16.286Z,8.20
2019-05-07T01:09:07.194Z,8.00
2019-05-07T01:13:58.102Z,7.80
2019-05-07T01:18:49.005Z,7.70
2019-05-07T01:23:42.607Z,8.10
2019-05-07T01:28:32.929Z,8.10
2019-05-07T01:33:22.770Z,8.40
2019-05-07T01:38:13.441Z,8.20
2019-05-07T01:43:04.342Z,8.00
2019-05-07T01:47:55.259Z,7.80
2019-05-07T01:52:46.172Z,7.70
2019-05-07T01:57:37.129Z,7.60
2019-05-07T02:02:32.025Z,7.60
2019-05-07T02:07:22.691Z,8.20
2019-05-07T02:12:13.234Z,8.30
2019-05-07T02:17:03.665Z,8.10
2019-05-07T02:21:54.583Z,7.90
2019-05-07T02:26:45.503Z,7.70
2019-05-07T02:31:36.439Z,7.60
2019-05-07T02:36:27.345Z,7.50
2019-05-07T02:41:23.396Z,7.60
2019-05-07T02:46:25.969Z,8.10
2019-05-07T02:51:06.139Z,8.20
2019-05-07T02:55:57.055Z,8.00
2019-05-07T03:00:47.973Z,7.80
2019-05-07T03:05:38.874Z,7.60
2019-05-07T03:10:29.770Z,7.40
2019-05-07T03:15:23.844Z,7.40
2019-05-07T03:20:17.735Z,7.60
2019-05-07T03:25:09.418Z,8.10
2019-05-07T03:30:04.316Z,8.10
2019-05-07T03:34:57.884Z,7.90
2019-05-07T03:39:45.213Z,7.70
2019-05-07T03:44:38.084Z,7.50
2019-05-07T03:49:29.757Z,7.30
2019-05-07T03:54:23.791Z,7.30
2019-05-07T03:59:13.007Z,7.60
2019-05-07T04:04:03.734Z,7.90
2019-05-07T04:08:54.235Z,7.90
2019-05-07T04:13:45.152Z,7.70
2019-05-07T04:18:36.091Z,7.50
2019-05-07T04:23:26.996Z,7.40
2019-05-07T04:28:18.791Z,7.20
2019-05-07T04:33:13.063Z,7.60
2019-05-07T04:38:05.773Z,7.60
2019-05-07T04:42:53.871Z,8.00
2019-05-07T04:47:47.454Z,7.90
2019-05-07T04:52:34.476Z,7.70
2019-05-07T04:57:25.399Z,7.50
2019-05-07T05:02:16.342Z,7.40
2019-05-07T05:07:07.994Z,7.20
2019-05-07T05:11:58.906Z,7.20
2019-05-07T05:16:49.822Z,7.60
2019-05-07T05:21:46.347Z,7.90
2019-05-07T05:26:37.245Z,7.90
2019-05-07T05:31:28.163Z,7.70
2019-05-07T05:36:19.061Z,7.50
2019-05-07T05:41:12.012Z,7.40
2019-05-07T05:46:02.916Z,7.30
2019-05-07T05:50:54.660Z,7.30
2019-05-07T05:55:45.575Z,7.90
2019-05-07T06:06:06.315Z,8.00
2019-05-07T06:10:57.971Z,7.70
2019-05-07T06:15:52.214Z,7.70
2019-05-07T06:20:42.978Z,7.60
2019-05-07T06:25:33.729Z,7.50
2019-05-07T06:30:24.629Z,7.80
2019-05-07T06:35:15.638Z,8.40
2019-05-07T06:40:12.705Z,8.50
2019-05-07T06:45:03.621Z,8.30
2019-05-07T06:49:54.539Z,8.20
2019-05-07T06:54:45.455Z,8.10
2019-05-07T06:59:37.377Z,8.10
2019-05-07T07:04:29.021Z,8.40
2019-05-07T07:09:22.297Z,9.20
2019-05-07T07:14:12.377Z,9.20
2019-05-07T07:19:04.017Z,9.30
2019-05-07T07:23:55.662Z,9.20
2019-05-07T07:28:47.377Z,9.10
2019-05-07T07:33:39.939Z,9.10
2019-05-07T07:38:32.864Z,9.10
2019-05-07T07:43:22.733Z,9.20
2019-05-07T07:48:13.738Z,9.80
2019-05-07T07:53:05.386Z,10.50
2019-05-07T07:57:57.278Z,10.50
2019-05-07T08:02:48.193Z,10.30
2019-05-07T08:07:39.085Z,10.20
2019-05-07T08:12:32.347Z,10.10
2019-05-07T08:17:22.425Z,10.00
2019-05-07T08:22:12.104Z,10.20
2019-05-07T08:27:02.768Z,10.80
2019-05-07T08:31:55.600Z,10.90
2019-05-07T08:36:46.509Z,10.80
2019-05-07T08:41:38.149Z,10.50
2019-05-07T08:46:32.774Z,10.40
2019-05-07T08:51:22.365Z,10.40
2019-05-07T08:56:12.762Z,10.30
2019-05-07T09:01:03.719Z,10.80
2019-05-07T09:05:54.740Z,11.30
2019-05-07T09:10:45.636Z,11.10
2019-05-07T09:15:37.281Z,10.80
2019-05-07T09:20:28.187Z,10.80
2019-05-07T09:25:19.086Z,10.70
2019-05-07T09:30:16.095Z,10.70
2019-05-07T09:35:07.853Z,11.00
2019-05-07T09:39:58.753Z,11.60
2019-05-07T09:44:49.667Z,11.70
2019-05-07T09:49:41.918Z,11.60
2019-05-07T09:54:32.368Z,11.50
2019-05-07T09:59:22.413Z,11.50
2019-05-07T10:04:13.301Z,11.50
2019-05-07T10:09:04.286Z,11.70
2019-05-07T10:13:57.752Z,12.60
2019-05-07T10:18:48.653Z,12.60
2019-05-07T10:23:41.586Z,12.50
2019-05-07T10:28:32.066Z,12.40
2019-05-07T10:33:22.851Z,12.30
2019-05-07T10:38:12.526Z,12.40
2019-05-07T10:43:03.240Z,12.60
2019-05-07T10:47:58.063Z,13.30
2019-05-07T10:52:48.980Z,13.60
2019-05-07T10:57:41.713Z,13.60
2019-05-07T11:02:32.487Z,13.60
2019-05-07T11:07:22.491Z,13.90
2019-05-07T11:12:13.410Z,13.90
2019-05-07T11:17:05.065Z,15.00
2019-05-07T11:21:55.976Z,14.90
2019-05-07T11:26:46.878Z,15.50
2019-05-07T11:31:38.517Z,16.00
2019-05-07T11:36:31.999Z,16.20
2019-05-07T11:41:22.891Z,16.20
2019-05-07T11:46:13.110Z,16.60
2019-05-07T11:51:04.312Z,17.30
2019-05-07T11:56:02.533Z,18.10
2019-05-07T12:00:57.842Z,18.20
2019-05-07T12:05:48.768Z,18.30
2019-05-07T12:10:40.405Z,18.90
2019-05-07T12:15:32.559Z,19.30
2019-05-07T12:20:22.986Z,19.30
2019-05-07T12:25:17.673Z,19.80
2019-05-07T12:30:09.308Z,19.70
2019-05-07T12:35:02.272Z,19.50
2019-05-07T12:39:52.769Z,19.40
2019-05-07T12:44:42.797Z,19.30
2019-05-07T12:49:33.696Z,19.50
2019-05-07T12:54:30.258Z,19.50
2019-05-07T12:59:21.885Z,19.50
2019-05-07T13:04:12.103Z,19.30
2019-05-07T13:09:02.997Z,19.00
2019-05-07T13:13:53.939Z,18.80
2019-05-07T13:18:44.845Z,19.00
2019-05-07T13:23:36.513Z,18.80
2019-05-07T13:28:27.413Z,18.80
2019-05-07T13:33:18.310Z,18.50
2019-05-07T13:38:24.947Z,18.30
2019-05-07T13:43:16.721Z,18.30
2019-05-07T13:48:08.358Z,18.70
2019-05-07T13:53:01.442Z,18.70
2019-05-07T13:57:52.273Z,18.40
2019-05-07T14:02:42.169Z,18.00
2019-05-07T14:07:32.391Z,17.70
2019-05-07T14:12:23.981Z,17.90
2019-05-07T14:17:15.616Z,17.80
2019-05-07T14:22:15.270Z,17.80
2019-05-07T14:26:58.287Z,17.10
2019-05-07T14:31:51.659Z,16.80
2019-05-07T14:36:43.817Z,16.80
2019-05-07T14:41:34.748Z,16.90
2019-05-07T14:46:25.649Z,17.30
2019-05-07T14:51:16.549Z,17.10
2019-05-07T14:56:07.450Z,16.80
2019-05-07T15:00:58.345Z,16.40
2019-05-07T15:05:49.241Z,16.20
2019-05-07T15:10:47.640Z,16.30
2019-05-07T15:15:38.553Z,16.80
2019-05-07T15:20:29.531Z,16.90
2019-05-07T15:25:22.519Z,16.80
2019-05-07T15:30:11.361Z,16.70
2019-05-07T15:35:02.370Z,16.60
2019-05-07T15:39:53.937Z,17.10
2019-05-07T15:44:45.581Z,17.10
2019-05-07T15:49:37.249Z,16.80
2019-05-07T15:54:28.157Z,16.80
2019-05-07T15:59:22.326Z,16.50
2019-05-07T16:04:19.948Z,16.20
2019-05-07T16:09:04.644Z,16.20
2019-05-07T16:14:00.109Z,16.50
2019-05-07T16:19:01.877Z,16.50
2019-05-07T16:23:54.588Z,16.30
2019-05-07T16:28:42.133Z,15.90
2019-05-07T16:33:34.730Z,15.70
2019-05-07T16:38:23.965Z,15.50
2019-05-07T16:43:14.871Z,15.80
2019-05-07T16:48:05.769Z,16.10
2019-05-07T16:52:56.677Z,15.80
2019-05-07T16:57:53.609Z,15.50
2019-05-07T17:02:45.472Z,15.20
2019-05-07T17:07:38.980Z,14.80
2019-05-07T17:12:29.886Z,14.80
2019-05-07T17:17:22.400Z,15.20
2019-05-07T17:22:12.166Z,15.20
2019-05-07T17:27:02.796Z,14.90
2019-05-07T17:31:53.724Z,14.60
2019-05-07T17:36:45.370Z,14.00
2019-05-07T17:41:37.012Z,14.10
2019-05-07T17:46:28.649Z,14.50
2019-05-07T17:51:26.647Z,14.30
2019-05-07T17:56:17.576Z,14.30
2019-05-07T18:01:08.557Z,13.90
2019-05-07T18:05:59.453Z,13.60
2019-05-07T18:10:50.361Z,13.30
2019-05-07T18:15:42.809Z,13.20
2019-05-07T18:20:32.794Z,13.60
2019-05-07T18:25:23.144Z,13.50
2019-05-07T18:30:14.037Z,13.20
2019-05-07T18:35:04.945Z,12.90
2019-05-07T18:39:55.853Z,12.60
2019-05-07T18:44:46.761Z,12.30
2019-05-07T18:49:37.677Z,12.60
2019-05-07T18:54:31.355Z,12.90
2019-05-07T18:59:19.517Z,12.70
2019-05-07T19:04:12.662Z,12.40
2019-05-07T19:09:01.337Z,12.00
2019-05-07T19:13:55.890Z,11.60
2019-05-07T19:18:43.926Z,11.60
2019-05-07T19:23:34.841Z,12.00
2019-05-07T19:28:25.763Z,11.90
2019-05-07T19:33:16.679Z,11.60
2019-05-07T19:38:07.581Z,11.20
2019-05-07T19:42:58.511Z,10.90
2019-05-07T19:47:49.429Z,10.50
2019-05-07T19:52:42.534Z,10.50
2019-05-07T19:57:33.190Z,10.90
2019-05-07T20:02:29.393Z,10.80
2019-05-07T20:07:20.306Z,10.40
2019-05-07T20:12:11.214Z,10.10
2019-05-07T20:17:02.127Z,9.80
2019-05-07T20:21:53.041Z,9.50
2019-05-07T20:26:43.969Z,9.50
2019-05-07T20:31:34.906Z,9.90
2019-05-07T20:36:25.823Z,9.80
2019-05-07T20:41:16.755Z,9.40
2019-05-07T20:46:08.416Z,8.80
2019-05-07T20:51:00.158Z,8.50
2019-05-07T20:55:52.992Z,8.50
2019-05-07T21:00:43.366Z,8.30
2019-05-07T21:05:33.213Z,8.70
2019-05-07T21:10:24.209Z,8.90
2019-05-07T21:15:15.145Z,8.70
2019-05-07T21:20:06.942Z,8.00
2019-05-07T21:24:57.869Z,8.00
2019-05-07T21:29:48.784Z,7.70
2019-05-07T21:34:41.972Z,7.50
2019-05-07T21:39:32.969Z,8.10
2019-05-07T21:44:25.241Z,8.10
2019-05-07T21:49:13.332Z,8.10
2019-05-07T21:54:05.261Z,7.80
2019-05-07T21:58:58.898Z,7.20
2019-05-07T22:03:52.239Z,7.10
2019-05-07T22:08:40.797Z,6.90
2019-05-07T22:13:32.966Z,6.70
2019-05-07T22:18:22.699Z,6.90
2019-05-07T22:23:13.556Z,7.40
2019-05-07T22:28:04.757Z,7.20
2019-05-07T22:32:55.410Z,6.90
2019-05-07T22:37:46.380Z,6.60
2019-05-07T22:42:37.295Z,6.30
2019-05-07T22:47:28.213Z,6.10
2019-05-07T22:52:19.114Z,5.90
2019-05-07T22:57:14.027Z,6.30
2019-05-07T23:02:03.090Z,6.50
2019-05-07T23:06:53.569Z,6.50
2019-05-07T23:11:44.470Z,6.20
2019-05-07T23:16:36.108Z,5.60
2019-05-07T23:21:27.767Z,5.40
2019-05-07T23:26:18.704Z,5.40
2019-05-07T23:31:11.894Z,5.20
2019-05-07T23:36:02.201Z,5.60
2019-05-07T23:40:53.329Z,6.10
2019-05-07T23:45:44.235Z,6.00
2019-05-07T23:50:35.156Z,5.70
2019-05-07T23:55:26.057Z,5.40
